Time;durP1;ratioP1;P1;durP2;ratioP2;P2;SDS_P1;SDS_P2;PMS_P1;PMS_P2;Temp;Humidity;BMP_temperature;BMP_pressure;BME280_temperature;BME280_humidity;BME280_pressure;Samples;Min_cycle;Max_cycle;Signal;HPM_P1;HPM_P2
2023/04/03 00:00:49;;;;;;;6.05;0.90;;;;;;;2.35;80.45;101794.38;5084188;28;20040;-76
2023/04/03 00:03:15;;;;;;;7.95;1.45;;;;;;;2.35;80.60;101807.38;5080803;28;20043;-77
2023/04/03 00:05:41;;;;;;;4.57;1.10;;;;;;;2.26;80.52;101806.97;5083242;28;20046;-77
2023/04/03 00:08:09;;;;;;;5.75;1.40;;;;;;;2.27;80.89;101812.22;5084453;28;20048;-76
2023/04/03 00:10:35;;;;;;;10.65;1.60;;;;;;;2.24;81.22;101811.22;5082068;28;20521;-76
2023/04/03 00:13:01;;;;;;;3.47;1.00;;;;;;;2.19;81.00;101814.47;5082488;28;20040;-76
2023/04/03 00:15:26;;;;;;;4.25;1.08;;;;;;;2.19;81.35;101811.88;5085206;28;20047;-77
2023/04/03 00:17:51;;;;;;;5.65;0.95;;;;;;;2.11;81.22;101813.22;5064161;28;20047;-77
2023/04/03 00:20:17;;;;;;;4.53;1.10;;;;;;;2.06;81.60;101816.41;5050327;28;20040;-76
2023/04/03 00:22:42;;;;;;;6.43;1.50;;;;;;;2.00;82.27;101821.34;5081501;28;20173;-77
2023/04/03 00:25:08;;;;;;;9.73;1.30;;;;;;;1.98;82.03;101821.25;5085323;28;20401;-76
2023/04/03 00:27:36;;;;;;;8.30;1.30;;;;;;;1.91;81.94;101816.53;5081528;28;20431;-76
2023/04/03 00:30:02;;;;;;;10.93;1.60;;;;;;;1.81;82.77;101833.44;5080210;28;20063;-76
2023/04/03 00:32:28;;;;;;;5.22;1.33;;;;;;;1.82;83.22;101824.78;5080557;28;20055;-76
2023/04/03 00:34:53;;;;;;;2.13;0.80;;;;;;;1.81;83.22;101825.63;5084721;28;20039;-76
2023/04/03 00:37:18;;;;;;;9.38;3.15;;;;;;;1.75;83.29;101835.72;5081834;28;20036;-77
2023/04/03 00:39:43;;;;;;;7.40;1.20;;;;;;;1.72;83.75;101825.16;5082671;28;20043;-76
2023/04/03 00:42:09;;;;;;;4.18;0.95;;;;;;;1.66;83.79;101820.53;5084503;28;20024;-76
2023/04/03 00:44:34;;;;;;;4.72;1.20;;;;;;;1.56;84.46;101830.41;5082011;28;20032;-77
2023/04/03 00:47:00;;;;;;;8.32;1.20;;;;;;;1.46;85.09;101829.03;5084272;28;20059;-76
2023/04/03 00:49:27;;;;;;;7.50;1.60;;;;;;;1.35;85.10;101833.69;5081215;28;20143;-76
2023/04/03 00:51:53;;;;;;;5.30;1.20;;;;;;;1.25;85.44;101831.41;5082372;28;20051;-76
2023/04/03 00:54:19;;;;;;;3.35;1.15;;;;;;;1.16;86.09;101834.44;5081640;28;20028;-76
2023/04/03 00:56:45;;;;;;;8.00;1.67;;;;;;;1.04;86.95;101834.66;5082622;28;20398;-77
2023/04/03 00:59:14;;;;;;;3.28;1.20;;;;;;;0.97;87.53;101831.66;5082641;28;20371;-76
2023/04/03 01:01:40;;;;;;;4.78;1.08;;;;;;;0.90;88.21;101838.25;5065278;28;20032;-75
2023/04/03 01:04:06;;;;;;;5.13;1.50;;;;;;;0.79;88.58;101840.25;5063987;28;20454;-76
2023/04/03 01:06:36;;;;;;;6.10;1.10;;;;;;;0.77;89.01;101847.06;5065401;28;20616;-76
2023/04/03 01:09:05;;;;;;;5.07;1.20;;;;;;;0.67;90.17;101836.09;5062308;28;20028;-76
2023/04/03 01:11:32;;;;;;;3.67;1.00;;;;;;;0.59;91.22;101836.56;5078010;28;20034;-76
2023/04/03 01:13:58;;;;;;;6.25;1.10;;;;;;;0.52;91.80;101851.72;5071235;28;20024;-76
2023/04/03 01:16:25;;;;;;;4.18;1.25;;;;;;;0.45;91.97;101853.09;5065797;28;20527;-76
2023/04/03 01:18:50;;;;;;;5.53;1.10;;;;;;;0.44;92.28;101854.78;5080655;28;20066;-76
2023/04/03 01:21:47;;;;;;;6.63;1.23;;;;;;;0.39;92.98;101853.66;5065548;28;20039;-76
2023/04/03 01:24:25;;;;;;;4.63;1.20;;;;;;;0.33;93.09;101857.59;5078924;28;20036;-76
2023/04/03 01:26:50;;;;;;;5.00;1.27;;;;;;;0.27;92.90;101860.75;5062107;28;20028;-76
2023/04/03 01:29:16;;;;;;;7.70;1.58;;;;;;;0.28;93.43;101857.31;5082985;28;20038;-76
2023/04/03 01:32:02;;;;;;;5.77;1.30;;;;;;;0.22;93.83;101857.00;5046224;28;20055;-76
2023/04/03 01:34:29;;;;;;;6.68;1.63;;;;;;;0.18;94.38;101862.81;5061598;28;20112;-76
2023/04/03 01:36:55;;;;;;;5.63;1.13;;;;;;;0.14;94.25;101873.84;5062886;28;20149;-76
2023/04/03 01:39:21;;;;;;;4.68;1.55;;;;;;;0.11;94.14;101871.06;5063137;28;20061;-76
2023/04/03 01:41:47;;;;;;;5.25;1.40;;;;;;;0.09;95.00;101872.69;5062332;28;20036;-76
2023/04/03 01:44:19;;;;;;;6.07;1.23;;;;;;;0.06;95.31;101873.38;5073999;28;20114;-76
2023/04/03 01:46:46;;;;;;;7.33;1.10;;;;;;;0.03;94.85;101875.81;5058017;28;20067;-76
2023/04/03 01:49:11;;;;;;;7.07;1.27;;;;;;;-0.04;95.95;101878.84;5065336;28;20533;-76
2023/04/03 01:51:36;;;;;;;8.27;1.67;;;;;;;-0.09;95.87;101882.88;5061983;28;20071;-76
2023/04/03 01:54:02;;;;;;;7.63;1.30;;;;;;;-0.13;96.50;101889.59;5082728;28;20069;-77
2023/04/03 01:56:28;;;;;;;7.33;1.43;;;;;;;-0.22;96.19;101889.03;5062166;28;20111;-77
2023/04/03 01:58:55;;;;;;;4.80;1.07;;;;;;;-0.27;96.75;101898.25;5064638;28;20025;-76
2023/04/03 02:01:21;;;;;;;7.73;1.20;;;;;;;-0.33;97.20;101897.91;5062139;28;20036;-76
2023/04/03 02:03:46;;;;;;;10.67;1.87;;;;;;;-0.35;97.80;101899.50;5062608;28;20036;-76
2023/04/03 02:06:12;;;;;;;4.07;0.90;;;;;;;-0.40;98.38;101906.09;5064385;28;20036;-76
2023/04/03 02:08:37;;;;;;;4.67;1.40;;;;;;;-0.46;98.81;101904.94;5062557;28;20025;-76
2023/04/03 02:11:05;;;;;;;7.00;1.30;;;;;;;-0.51;99.62;101902.88;5063816;28;20082;-75
2023/04/03 02:13:32;;;;;;;5.13;1.17;;;;;;;-0.56;100.00;101907.78;5063608;28;20506;-76
2023/04/03 02:15:57;;;;;;;7.13;1.10;;;;;;;-0.57;100.00;101907.69;5063460;28;20043;-76
2023/04/03 02:18:22;;;;;;;3.63;1.20;;;;;;;-0.61;100.00;101909.19;5081974;28;20029;-76
2023/04/03 02:20:48;;;;;;;4.90;1.30;;;;;;;-0.64;100.00;101908.13;5081012;28;20081;-75
2023/04/03 02:23:13;;;;;;;10.53;1.67;;;;;;;-0.67;100.00;101911.41;5063458;28;20067;-76
2023/04/03 02:25:38;;;;;;;5.00;1.30;;;;;;;-0.67;100.00;101908.81;5061914;28;20067;-76
2023/04/03 02:28:04;;;;;;;6.63;2.00;;;;;;;-0.74;100.00;101915.31;5063244;28;20060;-76
2023/04/03 02:30:30;;;;;;;6.97;1.60;;;;;;;-0.81;100.00;101917.44;5061427;28;20426;-76
2023/04/03 02:32:55;;;;;;;4.33;1.10;;;;;;;-0.84;100.00;101922.44;5080759;28;20032;-76
2023/04/03 02:35:21;;;;;;;4.57;1.07;;;;;;;-0.88;100.00;101922.25;5063936;28;20490;-76
2023/04/03 02:37:47;;;;;;;4.87;1.20;;;;;;;-0.92;100.00;101925.47;5062064;28;20076;-76
2023/04/03 02:40:13;;;;;;;6.60;1.53;;;;;;;-0.95;100.00;101924.34;5063771;28;20550;-76
2023/04/03 02:42:38;;;;;;;5.50;1.00;;;;;;;-0.96;100.00;101923.47;5080138;28;20517;-76
2023/04/03 02:45:05;;;;;;;7.97;1.50;;;;;;;-1.01;100.00;101929.16;5064137;28;20036;-76
2023/04/03 02:47:31;;;;;;;7.50;1.47;;;;;;;-1.05;100.00;101925.47;5061299;28;20029;-76
2023/04/03 02:49:56;;;;;;;4.60;1.00;;;;;;;-1.06;100.00;101930.56;5081332;28;20062;-76
2023/04/03 02:52:22;;;;;;;7.53;1.10;;;;;;;-1.07;100.00;101932.28;5079280;28;20040;-75
2023/04/03 02:54:48;;;;;;;4.87;1.07;;;;;;;-1.09;100.00;101935.56;5061711;28;20059;-75
2023/04/03 02:57:14;;;;;;;7.33;1.37;;;;;;;-1.09;100.00;101935.56;5082860;28;20379;-76
2023/04/03 02:59:40;;;;;;;7.67;1.30;;;;;;;-1.14;100.00;101938.75;5060570;28;20032;-76
2023/04/03 03:02:10;;;;;;;6.47;1.33;;;;;;;-1.16;100.00;101939.44;5056711;28;20108;-75
2023/04/03 03:04:36;;;;;;;7.00;1.50;;;;;;;-1.16;100.00;101939.44;5069763;28;20032;-76
2023/04/03 03:07:01;;;;;;;5.63;1.53;;;;;;;-1.26;100.00;101940.53;5081687;28;20100;-76
2023/04/03 03:09:29;;;;;;;7.60;2.83;;;;;;;-1.31;100.00;101944.56;5064333;28;20088;-75
2023/04/03 03:11:55;;;;;;;6.77;1.97;;;;;;;-1.31;100.00;101939.38;5077509;28;20032;-75
2023/04/03 03:14:20;;;;;;;4.60;1.30;;;;;;;-1.32;100.00;101942.75;5063178;28;20379;-75
2023/04/03 03:16:45;;;;;;;6.33;1.60;;;;;;;-1.35;100.00;101942.56;5080579;28;20035;-75
2023/04/03 03:19:10;;;;;;;11.57;1.17;;;;;;;-1.36;100.00;101951.13;5080422;28;20039;-76
2023/04/03 03:21:36;;;;;;;7.00;1.40;;;;;;;-1.39;100.00;101946.66;5063030;28;20032;-75
2023/04/03 03:24:02;;;;;;;5.57;1.33;;;;;;;-1.41;100.00;101948.25;5068193;28;20441;-76
2023/04/03 03:26:28;;;;;;;5.13;1.10;;;;;;;-1.40;100.00;101950.03;5080620;28;20067;-77
2023/04/03 03:28:54;;;;;;;6.63;1.33;;;;;;;-1.39;100.00;101956.09;5076669;28;20580;-76
2023/04/03 03:31:19;;;;;;;6.90;1.23;;;;;;;-1.42;100.00;101956.78;5079202;28;20115;-76
2023/04/03 03:33:44;;;;;;;8.37;1.87;;;;;;;-1.42;100.00;101954.19;5062818;28;20055;-75
2023/04/03 03:36:10;;;;;;;6.03;1.20;;;;;;;-1.44;100.00;101958.41;5080134;28;20101;-76
2023/04/03 03:38:36;;;;;;;6.30;1.37;;;;;;;-1.45;100.00;101956.59;5084444;28;20032;-76
2023/04/03 03:41:01;;;;;;;6.80;1.43;;;;;;;-1.47;100.00;101955.59;5065264;28;20478;-76
2023/04/03 03:43:29;;;;;;;7.73;1.50;;;;;;;-1.50;100.00;101955.41;5067395;28;20028;-75
2023/04/03 03:45:55;;;;;;;5.07;1.80;;;;;;;-1.50;100.00;101957.97;5083934;28;20408;-76
2023/04/03 03:48:22;;;;;;;7.33;1.43;;;;;;;-1.55;100.00;101954.19;5049509;28;20051;-77
2023/04/03 03:50:48;;;;;;;5.70;1.47;;;;;;;-1.52;100.00;101956.09;5078364;28;20406;-76
2023/04/03 03:53:14;;;;;;;6.07;1.10;;;;;;;-1.53;100.00;101956.91;5063811;28;20061;-74
2023/04/03 03:55:40;;;;;;;5.77;1.30;;;;;;;-1.54;100.00;101958.59;5062618;28;20448;-74
2023/04/03 03:58:06;;;;;;;7.03;1.50;;;;;;;-1.56;100.00;101957.59;5084753;28;20023;-74
2023/04/03 04:00:33;;;;;;;7.87;1.07;;;;;;;-1.61;100.00;101959.88;5050951;28;20035;-73
2023/04/03 04:02:59;;;;;;;6.33;1.00;;;;;;;-1.62;100.00;101965.88;5066897;28;20085;-73
2023/04/03 04:05:25;;;;;;;7.73;1.33;;;;;;;-1.61;100.00;101964.16;5067675;28;20489;-73
2023/04/03 04:07:52;;;;;;;8.63;1.30;;;;;;;-1.60;100.00;101955.59;5064844;28;20124;-74
2023/04/03 04:10:17;;;;;;;5.57;1.30;;;;;;;-1.60;100.00;101960.75;5066179;28;20111;-74
2023/04/03 04:12:44;;;;;;;4.60;1.10;;;;;;;-1.61;100.00;101951.22;5066317;28;20032;-73
2023/04/03 04:15:10;;;;;;;4.87;1.10;;;;;;;-1.63;100.00;101958.88;5065294;28;20123;-74
2023/04/03 04:17:36;;;;;;;4.67;1.13;;;;;;;-1.63;100.00;101963.16;5048834;28;20132;-74
2023/04/03 04:20:04;;;;;;;8.83;2.47;;;;;;;-1.62;100.00;101963.28;5080674;28;20174;-73
2023/04/03 04:22:31;;;;;;;5.87;1.13;;;;;;;-1.63;100.00;101966.63;5063483;28;20031;-74
2023/04/03 04:24:56;;;;;;;4.57;1.20;;;;;;;-1.60;100.00;101965.94;5066169;28;20032;-74
2023/04/03 04:27:21;;;;;;;7.30;1.20;;;;;;;-1.62;100.00;101972.75;5064735;28;20048;-74
2023/04/03 04:29:47;;;;;;;8.53;3.47;;;;;;;-1.66;100.00;101966.44;5064597;28;20026;-74
2023/04/03 04:32:13;;;;;;;6.13;1.10;;;;;;;-1.66;100.00;101971.63;5077930;28;20406;-73
2023/04/03 04:34:38;;;;;;;6.47;1.37;;;;;;;-1.68;100.00;101969.72;5069543;28;20153;-74
2023/04/03 04:37:03;;;;;;;10.70;1.60;;;;;;;-1.67;100.00;101981.88;5050355;28;20428;-74
2023/04/03 04:39:29;;;;;;;10.27;1.90;;;;;;;-1.68;100.00;101982.66;5063591;28;20035;-74
2023/04/03 04:41:57;;;;;;;6.27;1.50;;;;;;;-1.67;100.00;101984.47;5068071;28;20035;-73
2023/04/03 04:44:24;;;;;;;8.63;1.80;;;;;;;-1.69;100.00;101991.25;5056296;28;20123;-74
2023/04/03 04:46:50;;;;;;;10.00;1.60;;;;;;;-1.69;100.00;101983.47;5061556;28;20175;-74
2023/04/03 04:49:15;;;;;;;7.57;1.70;;;;;;;-1.70;100.00;101989.44;5082799;28;20035;-73
2023/04/03 04:51:40;;;;;;;8.53;1.60;;;;;;;-1.70;100.00;101998.13;5070322;28;20047;-74
2023/04/03 04:54:06;;;;;;;11.67;1.70;;;;;;;-1.67;100.00;102000.00;5083647;28;20040;-74
2023/04/03 04:56:31;;;;;;;6.40;1.60;;;;;;;-1.64;100.00;101995.91;5063696;28;20032;-74
2023/04/03 04:58:58;;;;;;;5.23;1.77;;;;;;;-1.65;100.00;101995.81;5063447;28;20028;-74
2023/04/03 05:01:25;;;;;;;6.73;1.73;;;;;;;-1.60;100.00;102007.38;5066430;28;20032;-74
2023/04/03 05:03:56;;;;;;;15.02;4.93;;;;;;;-1.56;100.00;102007.69;5066770;28;20035;-74
2023/04/03 05:06:23;;;;;;;12.00;2.70;;;;;;;-1.57;100.00;102007.59;5067175;28;20036;-74
2023/04/03 05:08:48;;;;;;;8.33;1.87;;;;;;;-1.52;100.00;102013.94;5065739;28;20647;-74
2023/04/03 05:11:14;;;;;;;6.27;1.43;;;;;;;-1.49;100.00;102009.00;5065516;28;20410;-74
2023/04/03 05:13:41;;;;;;;8.47;1.40;;;;;;;-1.44;100.00;102002.44;5063299;28;20035;-74
2023/04/03 05:16:07;;;;;;;3.20;1.00;;;;;;;-1.39;100.00;102008.81;5063295;28;20032;-74
2023/04/03 05:18:32;;;;;;;6.50;1.17;;;;;;;-1.35;100.00;102010.78;5082895;28;20145;-74
2023/04/03 05:21:02;;;;;;;5.37;1.40;;;;;;;-1.32;100.00;102010.97;5058713;28;20032;-74
2023/04/03 05:23:27;;;;;;;6.53;1.27;;;;;;;-1.23;100.00;102010.72;5080091;28;20033;-74
2023/04/03 05:25:54;;;;;;;7.37;1.10;;;;;;;-1.21;100.00;102009.09;5058641;28;20040;-73
2023/04/03 05:28:20;;;;;;;6.93;1.67;;;;;;;-1.14;100.00;102015.56;5075653;28;20092;-73
2023/04/03 05:30:53;;;;;;;9.23;1.30;;;;;;;-1.07;100.00;102015.19;5069030;28;20068;-74
2023/04/03 05:33:18;;;;;;;11.20;1.50;;;;;;;-1.04;100.00;102012.78;5078100;28;20032;-74
2023/04/03 05:35:48;;;;;;;5.03;1.00;;;;;;;-0.99;100.00;102020.88;5057012;28;20036;-74
2023/04/03 05:38:17;;;;;;;14.30;2.00;;;;;;;-0.93;100.00;102026.44;5064199;28;20486;-74
2023/04/03 05:40:42;;;;;;;5.67;1.40;;;;;;;-0.86;100.00;102017.34;5061742;28;20036;-73
2023/04/03 05:43:08;;;;;;;5.63;1.20;;;;;;;-0.81;100.00;102018.53;5065542;28;20470;-73
2023/04/03 05:45:36;;;;;;;7.37;1.63;;;;;;;-0.72;100.00;102017.41;5073560;28;20452;-74
2023/04/03 05:48:02;;;;;;;3.87;1.20;;;;;;;-0.68;100.00;102019.44;5079122;28;20063;-74
2023/04/03 05:50:30;;;;;;;6.20;1.17;;;;;;;-0.67;100.00;102018.59;5064357;28;20533;-74
2023/04/03 05:52:58;;;;;;;6.03;1.70;;;;;;;-0.58;100.00;102020.88;5048982;28;20076;-74
2023/04/03 05:55:25;;;;;;;8.63;1.80;;;;;;;-0.49;100.00;102031.84;5055746;28;20302;-74
2023/04/03 05:57:50;;;;;;;5.90;1.33;;;;;;;-0.45;100.00;102020.88;5063787;28;20565;-74
2023/04/03 06:00:16;;;;;;;6.43;1.20;;;;;;;-0.36;100.00;102030.03;5061142;28;20524;-74
2023/04/03 06:02:47;;;;;;;4.50;1.23;;;;;;;-0.30;100.00;102028.69;5065194;28;20200;-74
2023/04/03 06:05:17;;;;;;;4.83;1.00;;;;;;;-0.27;100.00;102028.88;5065814;28;20032;-74
2023/04/03 06:07:44;;;;;;;4.80;1.20;;;;;;;-0.22;100.00;102031.75;5077668;28;20471;-74
2023/04/03 06:10:12;;;;;;;5.67;1.30;;;;;;;-0.12;100.00;102022.84;5063321;28;20032;-74
2023/04/03 06:12:37;;;;;;;10.07;1.50;;;;;;;-0.12;99.06;102028.91;5066400;28;20035;-74
2023/04/03 06:15:03;;;;;;;6.13;1.23;;;;;;;-0.03;98.63;102024.31;5062699;28;20039;-73
2023/04/03 06:17:29;;;;;;;7.73;0.90;;;;;;;0.03;97.12;102033.22;5082312;28;20032;-73
2023/04/03 06:19:55;;;;;;;4.33;1.10;;;;;;;0.10;96.81;102038.88;5077404;28;20032;-74
2023/04/03 06:22:21;;;;;;;6.27;1.43;;;;;;;0.18;96.89;102035.09;5064788;28;20043;-73
2023/04/03 06:24:46;;;;;;;6.47;1.50;;;;;;;0.28;96.34;102038.22;5060505;28;20023;-74
2023/04/03 06:27:12;;;;;;;9.30;1.63;;;;;;;0.35;98.42;102037.78;5061735;28;20047;-74
2023/04/03 06:29:37;;;;;;;9.60;1.60;;;;;;;0.58;100.00;102044.34;5082435;28;20028;-74
2023/04/03 06:32:03;;;;;;;9.47;1.90;;;;;;;0.68;98.23;102045.75;5079610;28;20102;-74
2023/04/03 06:34:28;;;;;;;10.43;2.45;;;;;;;0.83;100.00;102044.03;5082811;28;20111;-74
2023/04/03 06:36:53;;;;;;;5.25;0.95;;;;;;;0.87;94.58;102049.50;5079353;28;20032;-74
2023/04/03 06:39:21;;;;;;;7.72;1.30;;;;;;;0.82;92.59;102047.47;5082333;28;20032;-74
2023/04/03 06:41:47;;;;;;;3.97;0.82;;;;;;;0.75;91.09;102051.38;5075806;28;20518;-73
2023/04/03 06:44:15;;;;;;;8.75;1.20;;;;;;;0.77;91.21;102051.50;5079540;28;20035;-74
2023/04/03 06:46:41;;;;;;;8.60;2.38;;;;;;;0.80;90.24;102059.47;5082295;28;20413;-74
2023/04/03 06:49:10;;;;;;;6.55;1.45;;;;;;;0.85;90.56;102056.31;5079577;28;20024;-74
2023/04/03 06:51:36;;;;;;;5.95;1.42;;;;;;;0.87;90.67;102054.69;5057761;28;20036;-74
2023/04/03 06:54:03;;;;;;;3.78;1.15;;;;;;;0.95;90.29;102062.06;5079037;28;20739;-74
2023/04/03 06:56:28;;;;;;;6.88;1.10;;;;;;;0.86;89.50;102055.53;5080985;28;20443;-74
2023/04/03 06:58:57;;;;;;;4.35;0.93;;;;;;;0.93;88.43;102061.06;5080679;28;20037;-74
2023/04/03 07:01:23;;;;;;;5.40;0.75;;;;;;;0.95;88.68;102065.53;5080250;28;20063;-74
2023/04/03 07:03:49;;;;;;;6.95;1.05;;;;;;;1.02;88.51;102064.19;5081762;28;20080;-74
2023/04/03 07:06:15;;;;;;;6.25;1.30;;;;;;;1.10;88.28;102068.09;5079807;28;20036;-74
2023/04/03 07:08:42;;;;;;;3.92;1.17;;;;;;;1.15;88.10;102073.56;5081882;28;20452;-74
2023/04/03 07:11:08;;;;;;;7.82;1.00;;;;;;;1.16;87.42;102065.88;5078380;28;20529;-74
2023/04/03 07:13:34;;;;;;;5.95;1.10;;;;;;;1.21;86.23;102069.63;5082352;28;20063;-74
2023/04/03 07:16:00;;;;;;;11.25;2.30;;;;;;;1.23;86.01;102074.91;5086632;28;20678;-74
2023/04/03 07:18:26;;;;;;;7.43;1.38;;;;;;;1.31;86.24;102073.66;5059089;28;20068;-74
2023/04/03 07:20:51;;;;;;;3.30;0.93;;;;;;;1.38;84.84;102072.28;5078162;28;20082;-74
2023/04/03 07:23:17;;;;;;;8.48;1.63;;;;;;;1.45;84.46;102077.91;5070344;28;20027;-74
2023/04/03 07:25:47;;;;;;;6.07;1.08;;;;;;;1.51;83.93;102074.75;5080613;28;20032;-74
2023/04/03 07:28:14;;;;;;;5.38;1.27;;;;;;;1.57;83.64;102069.88;5079977;28;20020;-74
2023/04/03 07:30:44;;;;;;;3.83;0.88;;;;;;;1.60;83.15;102084.75;5083124;28;20033;-74
2023/04/03 07:33:10;;;;;;;7.05;1.02;;;;;;;1.69;82.97;102078.34;5082915;28;20032;-74
2023/04/03 07:35:35;;;;;;;3.30;0.80;;;;;;;1.85;84.46;102073.97;5084255;28;20046;-74
2023/04/03 07:38:01;;;;;;;5.57;0.73;;;;;;;1.89;82.55;102074.25;5084045;28;20040;-74
2023/04/03 07:40:26;;;;;;;3.47;1.17;;;;;;;1.94;82.24;102079.69;5084222;28;20032;-73
2023/04/03 07:42:52;;;;;;;6.32;0.82;;;;;;;1.97;81.86;102082.47;5083952;28;20032;-74
2023/04/03 07:45:17;;;;;;;5.13;1.45;;;;;;;2.11;80.80;102076.25;5059293;28;20040;-74
2023/04/03 07:47:42;;;;;;;5.88;1.42;;;;;;;2.26;80.14;102083.09;5083938;28;20115;-74
2023/04/03 07:50:08;;;;;;;4.55;1.17;;;;;;;2.47;79.77;102085.94;5084140;28;20040;-74
2023/04/03 07:52:33;;;;;;;5.47;1.02;;;;;;;2.55;78.87;102085.50;5080765;28;20036;-74
2023/04/03 07:54:58;;;;;;;6.85;1.15;;;;;;;2.69;78.17;102082.69;5083157;28;20044;-74
2023/04/03 07:57:24;;;;;;;5.35;1.83;;;;;;;2.82;77.40;102079.88;5084782;28;20044;-74
2023/04/03 07:59:49;;;;;;;3.47;0.75;;;;;;;3.04;76.54;102080.16;5085492;28;20036;-74
2023/04/03 08:02:15;;;;;;;4.82;0.95;;;;;;;3.23;75.75;102086.25;5082916;28;20044;-74
2023/04/03 08:04:40;;;;;;;5.78;1.10;;;;;;;3.30;73.75;102075.28;5079755;28;20028;-75
2023/04/03 08:07:06;;;;;;;4.10;1.02;;;;;;;3.42;73.18;102068.03;5084551;28;20042;-75
2023/04/03 08:09:31;;;;;;;5.05;0.82;;;;;;;3.53;72.70;102073.78;5077978;28;20063;-74
2023/04/03 08:11:57;;;;;;;3.45;0.98;;;;;;;3.62;71.58;102079.44;5085392;28;20059;-75
2023/04/03 08:14:23;;;;;;;5.07;0.93;;;;;;;3.69;70.56;102083.22;5081047;28;20093;-74
2023/04/03 08:16:48;;;;;;;6.60;1.20;;;;;;;3.87;70.91;102085.78;5077518;28;20036;-75
2023/04/03 08:19:16;;;;;;;4.13;0.70;;;;;;;4.04;69.09;102084.84;5084666;28;20038;-74
2023/04/03 08:21:42;;;;;;;3.67;1.38;;;;;;;3.88;68.22;102078.03;5080844;28;20090;-75
2023/04/03 08:24:08;;;;;;;3.95;0.80;;;;;;;3.72;68.27;102083.34;5082549;28;20043;-74
2023/04/03 08:26:34;;;;;;;4.53;1.25;;;;;;;3.75;69.44;102080.91;5082033;28;20036;-75
2023/04/03 08:29:00;;;;;;;3.33;0.90;;;;;;;4.00;68.52;102082.91;5084574;28;20044;-74
2023/04/03 08:31:26;;;;;;;2.65;0.55;;;;;;;4.30;69.61;102083.41;5082191;28;20098;-75
2023/04/03 08:33:51;;;;;;;5.60;1.52;;;;;;;4.54;67.77;102086.19;5084552;28;20040;-74
2023/04/03 08:36:23;;;;;;;3.72;0.73;;;;;;;4.66;65.17;102077.06;5082398;28;20074;-75
2023/04/03 08:38:49;;;;;;;2.80;0.80;;;;;;;4.68;63.83;102080.66;5082810;28;20478;-75
2023/04/03 08:41:39;;;;;;;4.53;0.90;;;;;;;4.90;62.85;102077.22;5073941;28;20047;-75
2023/04/03 08:44:10;;;;;;;3.83;1.00;;;;;;;4.80;60.89;102083.81;5077527;28;20043;-75
2023/04/03 08:47:03;;;;;;;3.50;0.88;;;;;;;5.16;61.20;102075.66;5059964;28;20081;-75
2023/04/03 08:49:32;;;;;;;;;;;;;;;5.31;60.62;102085.88;5076991;28;20490;-75
2023/04/03 08:52:00;;;;;;;4.85;1.38;;;;;;;5.56;61.71;102078.16;5078680;28;19990;-75
2023/04/03 08:54:37;;;;;;;6.43;0.90;;;;;;;5.66;62.34;102079.44;5080720;28;20044;-75
2023/04/03 08:57:05;;;;;;;4.20;1.45;;;;;;;5.93;62.90;102079.56;5077028;28;20036;-75
2023/04/03 08:59:34;;;;;;;6.38;1.10;;;;;;;5.99;57.96;102077.19;5082969;28;20032;-75
2023/04/03 09:02:05;;;;;;;4.22;1.05;;;;;;;6.17;58.82;102078.72;5082844;28;20040;-75
2023/04/03 09:04:32;;;;;;;2.80;0.90;;;;;;;6.12;56.16;102087.31;5066694;28;20058;-75
2023/04/03 09:07:04;;;;;;;3.95;0.90;;;;;;;6.01;56.61;102080.78;5077785;28;20072;-75
2023/04/03 09:09:30;;;;;;;;;;;;;;;6.03;57.14;102076.50;5077142;28;20119;-74
2023/04/03 09:12:28;;;;;;;2.42;0.73;;;;;;;6.07;55.45;102082.72;5084561;28;19951;-75
2023/04/03 09:15:15;;;;;;;2.70;0.50;;;;;;;6.23;56.56;102073.69;5079793;28;20033;-75
2023/04/03 09:17:45;;;;;;;4.47;0.77;;;;;;;6.13;56.56;102083.88;5065427;28;20043;-75
2023/04/03 09:20:38;;;;;;;3.03;0.70;;;;;;;6.33;55.07;102078.44;5078435;28;20069;-75
2023/04/03 09:23:30;;;;;;;2.70;0.70;;;;;;;6.47;53.89;102076.28;5076409;28;20032;-75
2023/04/03 09:26:09;;;;;;;2.63;0.77;;;;;;;6.89;53.24;102070.75;5042916;28;20036;-75
2023/04/03 09:28:38;;;;;;;4.18;1.00;;;;;;;7.15;51.37;102077.78;5063932;28;20032;-75
2023/04/03 09:31:24;;;;;;;2.80;0.50;;;;;;;6.61;50.22;102071.56;5081325;28;20509;-75
2023/04/03 09:33:54;;;;;;;2.90;0.50;;;;;;;6.71;50.42;102076.28;5079663;28;20032;-75
2023/04/03 09:36:59;;;;;;;3.22;0.80;;;;;;;6.97;49.27;102075.44;5081535;28;20032;-75
2023/04/03 09:39:29;;;;;;;5.50;0.88;;;;;;;7.10;50.38;102073.19;4981333;28;20101;-75
2023/04/03 09:42:11;;;;;;;5.40;0.90;;;;;;;7.18;50.52;102079.59;4963251;28;20042;-76
2023/04/03 09:44:38;;;;;;;4.57;1.00;;;;;;;6.62;49.97;102070.69;5040998;28;20041;-75
2023/04/03 09:47:19;;;;;;;3.50;0.95;;;;;;;6.25;51.75;102075.53;5083337;28;20058;-76
2023/04/03 09:49:45;;;;;;;6.90;2.10;;;;;;;5.60;53.49;102074.81;5076565;28;20052;-75
2023/04/03 09:52:24;;;;;;;5.18;1.58;;;;;;;5.20;54.37;102090.69;5080922;28;20051;-75
2023/04/03 09:57:18;;;;;;;3.95;0.80;;;;;;;6.61;52.50;102071.56;5042213;28;20042;-78
2023/04/03 10:00:05;;;;;;;4.53;0.95;;;;;;;7.15;51.55;102068.97;5042947;28;20029;-76
2023/04/03 10:02:35;;;;;;;5.38;1.30;;;;;;;6.53;50.26;102064.31;5044104;28;20053;-78
2023/04/03 10:05:01;;;;;;;3.10;1.20;;;;;;;5.98;50.36;102078.06;5047039;28;20044;-77
2023/04/03 10:07:32;;;;;;;5.55;1.08;;;;;;;5.88;51.83;102071.53;5039763;28;20033;-77
2023/04/03 10:10:01;;;;;;;3.60;0.95;;;;;;;6.04;53.13;102074.75;5045716;28;20082;-78
2023/04/03 10:12:27;;;;;;;4.05;0.90;;;;;;;6.45;52.14;102065.78;5053333;28;20041;-78
2023/04/03 10:14:52;;;;;;;2.15;0.50;;;;;;;6.82;49.45;102064.41;5048753;28;20067;-78
2023/04/03 10:17:20;;;;;;;3.15;0.98;;;;;;;6.98;46.37;102058.81;5045285;28;20040;-78
2023/04/03 10:20:07;;;;;;;3.30;0.80;;;;;;;7.62;47.71;102051.19;5023462;28;20044;-78
2023/04/03 10:23:01;;;;;;;3.97;0.63;;;;;;;8.28;46.48;102055.75;5042578;28;20127;-78
2023/04/03 10:25:55;;;;;;;3.70;0.80;;;;;;;8.04;44.63;102048.03;5043223;28;20480;-78
2023/04/03 10:28:44;;;;;;;6.18;0.80;;;;;;;7.75;45.24;102063.84;5040647;28;20033;-79
2023/04/03 10:31:18;;;;;;;3.22;0.73;;;;;;;7.89;46.23;102054.66;5041341;28;20129;-79
2023/04/03 10:33:59;;;;;;;3.58;0.95;;;;;;;8.06;46.34;102051.59;5033212;28;20106;-80
2023/04/03 10:36:27;;;;;;;2.58;0.70;;;;;;;8.74;44.39;102049.09;5038385;28;20416;-79
2023/04/03 10:39:15;;;;;;;2.33;0.88;;;;;;;8.82;43.53;102033.50;5024410;28;20037;-79
2023/04/03 10:42:02;;;;;;;3.15;0.50;;;;;;;8.94;43.43;102032.06;5042668;28;20037;-79
2023/04/03 10:44:30;;;;;;;3.25;0.70;;;;;;;8.57;44.18;102038.16;5049302;28;20029;-78
2023/04/03 10:47:15;;;;;;;2.42;0.57;;;;;;;7.53;44.27;102037.78;5042908;28;20036;-78
2023/04/03 10:50:02;;;;;;;3.22;0.90;;;;;;;7.29;45.56;102038.81;5040847;28;20083;-78
2023/04/03 10:52:47;;;;;;;2.45;0.73;;;;;;;7.63;46.78;102034.59;5024957;28;20425;-78
2023/04/03 10:55:12;;;;;;;4.13;1.23;;;;;;;7.86;46.55;102030.91;5032555;28;20045;-78
2023/04/03 10:57:40;;;;;;;7.22;2.03;;;;;;;8.25;47.39;102026.69;5038867;28;20091;-79
2023/04/03 11:00:17;;;;;;;8.25;2.17;;;;;;;8.63;46.73;102030.41;5042182;28;20037;-77
2023/04/03 11:02:55;;;;;;;6.45;1.88;;;;;;;9.01;44.47;102022.53;5041092;28;20034;-78
2023/04/03 11:05:39;;;;;;;3.17;0.70;;;;;;;8.80;42.41;102022.03;5042794;28;20041;-79
2023/04/03 11:08:13;;;;;;;2.28;1.08;;;;;;;7.46;41.83;102032.31;5041533;28;20038;-79
2023/04/03 11:10:49;;;;;;;4.43;1.15;;;;;;;6.99;43.73;102028.22;5038790;28;20083;-79
2023/04/03 11:13:39;;;;;;;4.30;1.63;;;;;;;7.43;45.16;102026.09;5040359;28;20033;-78
2023/04/03 11:16:06;;;;;;;3.83;1.00;;;;;;;7.59;44.62;102028.34;5047887;28;20039;-78
2023/04/03 11:18:44;;;;;;;3.65;0.90;;;;;;;7.79;44.38;102021.06;5044375;28;20049;-77
2023/04/03 11:21:21;;;;;;;3.03;0.70;;;;;;;7.93;43.38;102023.19;5046062;28;20047;-78
2023/04/03 11:23:47;;;;;;;3.97;1.00;;;;;;;8.33;44.39;102017.28;5055691;28;20039;-79
2023/04/03 11:26:22;;;;;;;3.50;0.80;;;;;;;8.66;42.92;102014.69;5047312;28;20029;-79
2023/04/03 11:29:00;;;;;;;4.93;0.80;;;;;;;8.38;41.44;102017.41;5040109;28;20044;-78
2023/04/03 11:31:39;;;;;;;4.00;0.88;;;;;;;7.68;44.08;102028.63;5040604;28;20496;-78
2023/04/03 11:34:23;;;;;;;4.45;1.30;;;;;;;7.33;43.13;102024.03;5032687;28;20119;-78
2023/04/03 11:36:53;;;;;;;3.40;0.80;;;;;;;7.36;43.62;102019.78;5042592;28;20051;-78